Time;durP1;ratioP1;P1;durP2;ratioP2;P2;SDS_P1;SDS_P2;PMS_P1;PMS_P2;Temp;Humidity;BMP_temperature;BMP_pressure;BME280_temperature;BME280_humidity;BME280_pressure;Samples;Min_cycle;Max_cycle;Signal;HPM_P1;HPM_P2
2022/08/17 00:01:37;;;;;;;10.43;3.85;;;;;;;22.44;100.00;98413.38;5124024;27;20287;-79
2022/08/17 00:04:20;;;;;;;4.95;3.88;;;;;;;22.15;100.00;98420.53;5090831;28;20196;-79
2022/08/17 00:06:49;;;;;;;4.35;3.95;;;;;;;22.14;100.00;98410.78;5091307;28;20192;-79
2022/08/17 00:09:18;;;;;;;5.82;4.35;;;;;;;21.94;100.00;98410.50;5028479;28;20194;-79
2022/08/17 00:11:49;;;;;;;4.10;3.53;;;;;;;21.98;100.00;98409.09;4983204;28;20274;-79
2022/08/17 00:14:38;;;;;;;6.60;3.85;;;;;;;21.91;100.00;98420.84;4992019;28;20245;-79
2022/08/17 00:17:07;;;;;;;5.70;4.63;;;;;;;21.80;100.00;98415.91;4987841;28;20202;-80
2022/08/17 00:19:36;;;;;;;6.65;4.53;;;;;;;21.87;100.00;98422.25;4981845;28;20210;-80
2022/08/17 00:22:06;;;;;;;5.32;4.47;;;;;;;21.74;100.00;98424.78;4995571;28;20222;-80
2022/08/17 00:24:54;;;;;;;6.47;4.13;;;;;;;21.79;100.00;98420.47;5011316;28;20206;-79
2022/08/17 00:27:24;;;;;;;5.00;4.15;;;;;;;21.77;100.00;98417.13;5024087;28;20216;-79
2022/08/17 00:29:52;;;;;;;4.30;3.90;;;;;;;21.89;100.00;98412.94;4988699;28;20209;-79
2022/08/17 00:32:20;;;;;;;4.18;3.67;;;;;;;21.74;100.00;98414.81;4982311;28;20191;-79
2022/08/17 00:35:11;;;;;;;6.57;4.35;;;;;;;21.68;100.00;98410.16;4991667;28;20242;-79
2022/08/17 00:37:40;;;;;;;4.70;4.30;;;;;;;21.80;100.00;98407.81;5024764;28;20201;-79
2022/08/17 00:40:12;;;;;;;7.27;4.77;;;;;;;21.65;100.00;98400.59;5029946;28;20201;-79
2022/08/17 00:42:45;;;;;;;6.80;4.27;;;;;;;21.31;100.00;98414.63;5031412;28;20264;-80
2022/08/17 00:45:17;;;;;;;4.30;3.90;;;;;;;21.48;100.00;98414.47;5034399;28;20230;-79
2022/08/17 00:47:45;;;;;;;5.40;4.43;;;;;;;21.27;100.00;98415.19;5079925;27;20230;-79
2022/08/17 00:50:18;;;;;;;8.27;4.70;;;;;;;21.23;100.00;98411.16;5128798;27;20214;-79
2022/08/17 00:52:52;;;;;;;5.20;3.70;;;;;;;21.13;100.00;98406.91;5137951;27;20229;-79
2022/08/17 00:55:22;;;;;;;6.67;4.43;;;;;;;21.09;100.00;98419.03;5129732;27;20210;-79
2022/08/17 00:57:58;;;;;;;5.23;4.30;;;;;;;20.96;100.00;98413.44;5132243;27;20206;-79
2022/08/17 01:00:34;;;;;;;7.90;4.80;;;;;;;20.80;100.00;98416.28;5134942;27;20186;-79
2022/08/17 01:03:06;;;;;;;5.13;4.20;;;;;;;20.92;100.00;98419.38;5128169;27;20218;-79
2022/08/17 01:05:37;;;;;;;6.70;4.13;;;;;;;20.85;100.00;98421.97;5137675;27;20198;-79
2022/08/17 01:08:14;;;;;;;5.20;4.20;;;;;;;20.86;100.00;98413.72;5132653;27;20644;-79
2022/08/17 01:10:46;;;;;;;4.87;4.20;;;;;;;20.87;100.00;98422.63;5128083;27;20198;-79
2022/08/17 01:13:33;;;;;;;4.87;4.13;;;;;;;20.82;100.00;98431.22;5130774;27;20198;-79
2022/08/17 01:16:15;;;;;;;5.10;3.77;;;;;;;20.82;100.00;98433.09;5136540;27;20186;-80
2022/08/17 01:18:49;;;;;;;7.83;4.40;;;;;;;20.75;100.00;98433.00;5137549;27;20200;-79
2022/08/17 01:21:37;;;;;;;6.73;4.30;;;;;;;20.91;100.00;98423.09;5131738;27;20201;-79
2022/08/17 01:24:08;;;;;;;5.10;4.27;;;;;;;20.95;100.00;98427.94;5129491;27;20283;-79
2022/08/17 01:26:40;;;;;;;5.10;4.43;;;;;;;20.81;100.00;98426.03;5137453;27;20608;-79
2022/08/17 01:29:12;;;;;;;6.67;4.57;;;;;;;20.86;100.00;98427.16;5129559;27;20269;-79
2022/08/17 01:31:46;;;;;;;4.90;4.50;;;;;;;20.73;100.00;98428.78;5128871;27;20183;-79
2022/08/17 01:34:17;;;;;;;6.50;4.40;;;;;;;20.76;100.00;98425.75;5133055;27;20273;-80
2022/08/17 01:36:52;;;;;;;7.43;5.10;;;;;;;20.79;100.00;98431.59;5129719;27;20197;-79
2022/08/17 01:39:26;;;;;;;4.80;4.30;;;;;;;20.52;100.00;98432.97;5137233;27;20186;-79
2022/08/17 01:42:03;;;;;;;6.03;4.53;;;;;;;20.69;100.00;98433.69;5130525;27;20302;-79
2022/08/17 01:44:32;;;;;;;8.63;4.70;;;;;;;20.78;100.00;98432.63;5128458;27;20205;-79
2022/08/17 01:47:05;;;;;;;5.57;4.90;;;;;;;20.54;100.00;98425.56;5130321;27;20205;-79
2022/08/17 01:49:34;;;;;;;4.70;4.13;;;;;;;20.53;100.00;98428.44;5091447;28;20270;-79
2022/08/17 01:52:08;;;;;;;5.17;4.67;;;;;;;20.63;100.00;98430.88;5085721;28;20191;-79
2022/08/17 01:54:41;;;;;;;5.30;4.80;;;;;;;20.55;100.00;98426.41;5028602;28;20235;-79
2022/08/17 01:57:10;;;;;;;5.20;4.60;;;;;;;20.50;100.00;98429.63;5030764;28;20197;-79
2022/08/17 01:59:39;;;;;;;8.43;5.30;;;;;;;20.63;100.00;98423.66;5029515;28;20209;-79
2022/08/17 02:02:07;;;;;;;8.27;4.73;;;;;;;20.49;100.00;98425.28;5024869;28;20186;-79
2022/08/17 02:04:36;;;;;;;8.27;4.77;;;;;;;20.60;100.00;98421.31;5025196;28;20200;-78
2022/08/17 02:07:05;;;;;;;6.40;4.70;;;;;;;20.67;100.00;98418.75;5038142;28;20339;-78
2022/08/17 02:09:33;;;;;;;4.90;4.40;;;;;;;20.69;100.00;98422.09;5066461;28;20311;-79
2022/08/17 02:12:10;;;;;;;5.27;4.77;;;;;;;20.74;100.00;98425.06;5085160;27;20190;-79
2022/08/17 02:14:58;;;;;;;7.27;5.13;;;;;;;20.75;100.00;98426.75;5136249;27;20194;-79
2022/08/17 02:17:27;;;;;;;8.75;4.82;;;;;;;20.81;100.00;98432.25;5129343;27;20641;-79
2022/08/17 02:19:56;;;;;;;6.50;5.00;;;;;;;20.69;100.00;98438.25;5136402;27;20194;-79
2022/08/17 02:22:25;;;;;;;4.90;4.43;;;;;;;20.63;100.00;98425.50;5132702;27;20198;-79
2022/08/17 02:24:55;;;;;;;5.97;4.40;;;;;;;20.55;100.00;98431.78;5130362;27;20468;-79
2022/08/17 02:27:30;;;;;;;5.20;4.17;;;;;;;20.58;100.00;98429.59;5131581;27;20194;-78
2022/08/17 02:29:58;;;;;;;6.53;4.90;;;;;;;20.54;100.00;98428.25;5130191;27;20198;-79
2022/08/17 02:32:27;;;;;;;6.90;4.97;;;;;;;20.43;100.00;98422.44;5126581;27;20199;-79
2022/08/17 02:34:56;;;;;;;7.83;4.87;;;;;;;20.55;100.00;98421.84;5136076;27;20187;-79
2022/08/17 02:37:24;;;;;;;5.77;4.73;;;;;;;20.29;100.00;98416.81;5136011;27;20657;-78
2022/08/17 02:39:53;;;;;;;7.20;4.97;;;;;;;20.28;100.00;98417.81;5128676;27;20198;-79
2022/08/17 02:42:27;;;;;;;8.13;4.87;;;;;;;20.27;100.00;98418.00;5128502;27;20234;-79
2022/08/17 02:44:59;;;;;;;6.73;5.07;;;;;;;20.05;100.00;98418.78;5126607;27;20213;-79
2022/08/17 02:47:28;;;;;;;8.07;5.20;;;;;;;20.03;100.00;98418.97;5124964;27;20265;-79
2022/08/17 02:49:57;;;;;;;6.47;4.60;;;;;;;20.09;100.00;98417.44;5135914;27;20229;-79
2022/08/17 02:52:27;;;;;;;5.93;5.10;;;;;;;20.10;100.00;98419.94;5130356;27;20645;-79
2022/08/17 02:55:15;;;;;;;5.40;4.90;;;;;;;19.95;100.00;98422.53;5131746;27;20198;-79
2022/08/17 02:57:46;;;;;;;6.43;4.93;;;;;;;20.00;100.00;98419.34;5130325;27;20221;-79
2022/08/17 03:00:21;;;;;;;5.77;5.07;;;;;;;19.84;100.00;98411.34;5131425;27;20194;-79
2022/08/17 03:02:51;;;;;;;9.10;5.80;;;;;;;19.83;100.00;98412.34;5130166;27;20241;-79
2022/08/17 03:05:23;;;;;;;8.40;5.30;;;;;;;19.82;100.00;98414.22;5135482;27;20235;-79
2022/08/17 03:07:54;;;;;;;9.77;5.60;;;;;;;19.79;100.00;98413.75;5135277;27;20197;-79
2022/08/17 03:10:24;;;;;;;7.80;5.67;;;;;;;19.86;100.00;98420.91;5127681;27;20209;-79
2022/08/17 03:12:55;;;;;;;8.40;5.50;;;;;;;19.67;100.00;98418.63;5068113;28;20566;-79
2022/08/17 03:15:27;;;;;;;6.07;4.87;;;;;;;19.71;100.00;98414.59;5065345;28;20204;-79
2022/08/17 03:17:59;;;;;;;6.17;5.57;;;;;;;19.57;100.00;98418.84;5068084;28;20198;-78
2022/08/17 03:20:30;;;;;;;5.47;4.90;;;;;;;19.51;100.00;98421.38;5071898;28;20192;-79
2022/08/17 03:22:59;;;;;;;5.27;4.87;;;;;;;19.53;100.00;98414.81;5060364;28;20200;-78
2022/08/17 03:25:32;;;;;;;5.40;4.90;;;;;;;19.59;100.00;98418.66;5065911;28;20204;-79
2022/08/17 03:28:01;;;;;;;7.33;5.33;;;;;;;19.53;100.00;98420.19;5068429;28;20189;-79
2022/08/17 03:30:32;;;;;;;6.97;5.13;;;;;;;19.68;100.00;98406.88;5071820;28;20271;-79
2022/08/17 03:33:06;;;;;;;6.63;4.93;;;;;;;19.72;100.00;98414.44;5065564;28;20192;-78
2022/08/17 03:35:39;;;;;;;5.83;4.50;;;;;;;19.77;100.00;98415.72;5066852;28;20380;-79
2022/08/17 03:38:08;;;;;;;6.00;5.43;;;;;;;19.70;100.00;98418.31;5070002;28;20259;-79
2022/08/17 03:40:39;;;;;;;5.27;4.83;;;;;;;19.67;100.00;98424.00;5068915;28;20270;-79
2022/08/17 03:43:28;;;;;;;5.60;5.07;;;;;;;19.73;100.00;98426.00;5087568;27;20210;-79
2022/08/17 03:57:37;;;;;;;6.43;5.23;;;;;;;19.78;100.00;98420.09;5116505;27;20190;-79
2022/08/17 04:00:06;;;;;;;6.77;5.10;;;;;;;19.62;100.00;98421.03;5131576;27;20198;-79
2022/08/17 04:02:36;;;;;;;6.97;5.50;;;;;;;19.53;100.00;98430.91;5127204;27;20190;-79
2022/08/17 04:05:05;;;;;;;6.33;5.40;;;;;;;18.89;100.00;98438.09;5128491;27;20237;-79
2022/08/17 04:07:34;;;;;;;6.77;5.60;;;;;;;19.11;100.00;98436.56;5096120;27;20186;-78
2022/08/17 04:10:04;;;;;;;6.57;5.53;;;;;;;18.97;100.00;98434.56;5130966;27;20209;-79
2022/08/17 04:12:44;;;;;;;6.20;5.27;;;;;;;19.20;100.00;98432.84;5099047;27;20194;-79
2022/08/17 04:15:12;;;;;;;6.40;5.50;;;;;;;19.36;100.00;98432.81;5127278;27;20281;-79
2022/08/17 04:17:43;;;;;;;7.90;6.00;;;;;;;19.38;100.00;98436.16;5128258;27;20190;-79
2022/08/17 04:20:13;;;;;;;7.63;4.90;;;;;;;19.40;100.00;98436.84;5134439;27;20222;-78
2022/08/17 04:22:55;;;;;;;7.40;5.30;;;;;;;19.39;100.00;98442.38;5126649;27;20197;-79
2022/08/17 04:25:26;;;;;;;5.77;5.23;;;;;;;19.39;100.00;98448.56;5128283;27;20221;-79
2022/08/17 04:27:55;;;;;;;6.03;5.43;;;;;;;19.44;100.00;98446.22;5129390;27;20205;-79
2022/08/17 04:30:24;;;;;;;6.43;5.70;;;;;;;19.28;100.00;98448.94;5128500;27;20203;-79
2022/08/17 04:32:57;;;;;;;6.33;5.50;;;;;;;19.30;100.00;98451.44;5127146;27;20201;-79
2022/08/17 04:35:36;;;;;;;6.53;5.70;;;;;;;19.32;100.00;98452.13;5128031;28;20204;-79
2022/08/17 04:38:07;;;;;;;6.83;6.13;;;;;;;19.36;100.00;98446.25;5133688;28;20205;-79
2022/08/17 04:43:24;;;;;;;8.57;5.90;;;;;;;19.31;100.00;98448.63;5133784;28;20186;-79
2022/08/17 04:45:57;;;;;;;7.77;5.87;;;;;;;19.39;100.00;98450.41;5127647;28;20289;-79
2022/08/17 04:48:29;;;;;;;7.37;6.07;;;;;;;19.41;100.00;98460.00;5130860;28;20201;-79
2022/08/17 04:51:08;;;;;;;6.97;6.23;;;;;;;19.52;100.00;98458.78;5133841;28;20190;-79
2022/08/17 04:53:38;;;;;;;6.87;6.27;;;;;;;19.52;100.00;98456.13;5130963;28;20205;-79
2022/08/17 04:56:07;;;;;;;8.00;6.50;;;;;;;19.55;100.00;98458.44;5126440;28;20190;-79
2022/08/17 04:58:44;;;;;;;8.07;6.60;;;;;;;19.66;100.00;98460.78;5133936;28;20194;-79
2022/08/17 05:01:13;;;;;;;8.47;6.10;;;;;;;19.76;100.00;98459.75;5132432;28;20468;-79
2022/08/17 05:03:44;;;;;;;10.23;6.90;;;;;;;19.75;100.00;98452.69;5131098;28;20233;-79
2022/08/17 05:06:13;;;;;;;9.07;6.20;;;;;;;19.64;100.00;98449.38;5127313;28;20198;-79
2022/08/17 05:08:41;;;;;;;7.57;6.20;;;;;;;19.59;100.00;98438.34;5064807;28;20204;-79
2022/08/17 05:11:10;;;;;;;8.90;7.10;;;;;;;19.55;100.00;98449.53;5069407;28;20196;-78
2022/08/17 05:13:39;;;;;;;7.40;6.70;;;;;;;19.61;100.00;98462.34;5067946;28;20204;-79
2022/08/17 05:16:11;;;;;;;7.40;6.70;;;;;;;19.43;100.00;98457.97;5066516;28;20204;-79
2022/08/17 05:18:39;;;;;;;8.03;6.80;;;;;;;19.55;100.00;98455.75;5070040;28;20267;-79
2022/08/17 05:21:09;;;;;;;8.90;6.80;;;;;;;19.67;100.00;98457.09;5070429;28;20200;-79
2022/08/17 05:23:38;;;;;;;6.97;6.27;;;;;;;19.77;100.00;98456.03;5070230;28;20659;-78
2022/08/17 05:26:13;;;;;;;7.40;6.70;;;;;;;19.90;100.00;98451.81;5082154;27;20299;-79
2022/08/17 05:28:55;;;;;;;7.03;6.00;;;;;;;19.98;100.00;98451.78;5137375;27;20195;-79
2022/08/17 05:31:28;;;;;;;7.63;6.90;;;;;;;20.11;100.00;98453.06;5136239;27;20664;-79
2022/08/17 05:33:57;;;;;;;9.70;7.10;;;;;;;20.17;100.00;98442.44;5127781;27;20205;-79
2022/08/17 05:36:27;;;;;;;7.47;6.83;;;;;;;20.32;100.00;98447.88;5129620;27;20274;-79
2022/08/17 05:39:11;;;;;;;6.90;6.13;;;;;;;20.50;100.00;98444.94;5136456;27;20284;-79
2022/08/17 05:41:45;;;;;;;7.83;7.03;;;;;;;20.56;100.00;98450.47;5128937;27;20228;-79
2022/08/17 05:44:14;;;;;;;7.43;6.20;;;;;;;20.63;100.00;98449.72;5130909;27;20187;-79
2022/08/17 05:46:47;;;;;;;10.30;6.25;;;;;;;20.88;100.00;98445.00;5127399;27;20195;-80
2022/08/17 05:49:18;;;;;;;7.17;6.47;;;;;;;20.88;100.00;98453.91;5127919;27;20212;-79
2022/08/17 05:52:22;;;;;;;11.50;7.07;;;;;;;20.83;100.00;98462.50;5135047;27;20194;-79
2022/08/17 05:55:03;;;;;;;7.07;6.37;;;;;;;20.82;100.00;98465.38;5129992;27;20206;-78
2022/08/17 05:57:55;;;;;;;7.33;6.30;;;;;;;20.94;100.00;98458.56;5133611;27;20206;-79
2022/08/17 06:00:28;;;;;;;9.40;6.28;;;;;;;21.02;100.00;98463.03;5136786;27;20186;-79
2022/08/17 06:03:30;;;;;;;6.90;5.53;;;;;;;21.11;100.00;98459.25;5131097;27;20207;-79
2022/08/17 06:06:09;;;;;;;9.02;6.07;;;;;;;21.32;100.00;98455.88;5120647;27;20221;-79
2022/08/17 06:08:46;;;;;;;8.63;5.30;;;;;;;21.55;100.00;98453.97;5127301;27;20206;-79
2022/08/17 06:11:28;;;;;;;5.97;5.38;;;;;;;21.62;100.00;98451.38;5132702;27;20191;-78
2022/08/17 06:14:22;;;;;;;6.90;5.18;;;;;;;21.78;100.00;98447.63;5129402;27;20186;-79
2022/08/17 06:17:00;;;;;;;7.68;5.65;;;;;;;21.92;100.00;98446.78;5127886;27;20749;-79
2022/08/17 06:19:37;;;;;;;7.28;5.40;;;;;;;21.74;100.00;98440.94;5083586;27;20356;-79
2022/08/17 06:22:07;;;;;;;6.03;5.20;;;;;;;22.15;100.00;98435.88;5136528;27;20182;-79
2022/08/17 06:24:45;;;;;;;6.20;4.78;;;;;;;22.33;100.00;98441.72;5130378;27;20202;-79
2022/08/17 06:27:23;;;;;;;5.55;4.88;;;;;;;22.54;100.00;98441.72;5133425;27;20212;-79
2022/08/17 06:30:00;;;;;;;5.95;4.70;;;;;;;22.74;100.00;98451.88;5130768;27;20218;-80
2022/08/17 06:32:30;;;;;;;5.68;5.10;;;;;;;22.91;100.00;98452.47;5132357;27;20193;-79
2022/08/17 06:35:00;;;;;;;6.93;4.80;;;;;;;23.09;100.00;98447.44;5134897;27;20198;-79
2022/08/17 06:37:47;;;;;;;5.40;4.38;;;;;;;23.06;100.00;98447.81;5130939;27;20227;-79
2022/08/17 06:40:44;;;;;;;5.00;4.53;;;;;;;23.15;100.00;98441.25;5128713;27;20220;-79
2022/08/17 06:43:26;;;;;;;7.07;4.70;;;;;;;23.29;100.00;98445.72;5093181;28;20242;-80
2022/08/17 06:46:03;;;;;;;5.80;4.40;;;;;;;23.72;100.00;98452.88;5087875;28;20211;-79
2022/08/17 06:48:39;;;;;;;5.40;4.55;;;;;;;23.43;100.00;98454.75;5091709;28;20220;-79
2022/08/17 06:51:18;;;;;;;4.72;4.32;;;;;;;23.76;100.00;98456.88;5090130;28;20192;-80
2022/08/17 06:53:53;;;;;;;5.75;4.20;;;;;;;23.93;100.00;98453.66;5090477;28;20253;-80
2022/08/17 06:56:27;;;;;;;5.10;4.10;;;;;;;24.00;100.00;98459.06;5094272;28;20195;-80
2022/08/17 06:59:45;;;;;;;6.20;4.10;;;;;;;24.18;100.00;98455.81;5094826;28;20199;-79
2022/08/17 07:02:37;;;;;;;8.35;3.90;;;;;;;24.51;100.00;98450.53;5093351;28;20690;-80
2022/08/17 07:05:23;;;;;;;4.30;3.83;;;;;;;24.54;100.00;98463.69;5094460;28;20219;-79
2022/08/17 07:08:03;;;;;;;6.22;3.63;;;;;;;24.48;100.00;98454.47;5094678;28;20292;-80
2022/08/17 07:10:47;;;;;;;7.13;4.00;;;;;;;24.51;100.00;98459.50;5093554;28;20223;-79
2022/08/17 07:13:42;;;;;;;6.93;3.72;;;;;;;24.47;100.00;98463.66;5093066;28;20206;-79
2022/08/17 07:16:22;;;;;;;4.40;4.00;;;;;;;24.45;100.00;98471.16;5093140;28;20283;-79
2022/08/17 07:18:56;;;;;;;5.30;3.45;;;;;;;24.68;100.00;98459.09;5093973;28;20210;-79
2022/08/17 07:21:36;;;;;;;6.75;3.85;;;;;;;24.97;100.00;98441.63;5089819;28;20239;-78
2022/08/17 07:24:22;;;;;;;5.13;3.72;;;;;;;25.15;98.88;98432.91;5091057;28;20191;-79
2022/08/17 07:27:06;;;;;;;3.53;3.22;;;;;;;25.24;96.05;98445.22;5091727;28;20216;-79
2022/08/17 07:29:40;;;;;;;5.28;3.67;;;;;;;25.34;94.31;98442.91;5090190;28;20237;-79
2022/08/17 07:32:12;;;;;;;4.30;2.95;;;;;;;25.29;95.29;98429.16;5092429;28;20204;-79
2022/08/17 07:35:03;;;;;;;5.70;3.80;;;;;;;25.18;96.27;98444.16;5090060;28;20199;-78
2022/08/17 07:37:35;;;;;;;4.68;3.35;;;;;;;25.33;96.35;98452.09;5093409;28;20204;-79
2022/08/17 07:40:20;;;;;;;5.88;3.80;;;;;;;25.39;95.74;98443.13;5088425;28;20282;-79
2022/08/17 07:43:20;;;;;;;5.90;3.50;;;;;;;25.46;96.30;98445.81;5126611;27;20237;-80
2022/08/17 07:48:42;;;;;;;3.65;3.00;;;;;;;25.63;94.35;98447.03;5131918;27;20206;-80
2022/08/17 07:51:23;;;;;;;4.88;3.65;;;;;;;25.44;93.51;98448.72;5129842;27;20200;-79
2022/08/17 07:53:52;;;;;;;4.03;3.35;;;;;;;25.59;93.73;98451.22;5129573;27;20249;-79
2022/08/17 07:56:49;;;;;;;5.68;3.72;;;;;;;25.71;93.03;98460.41;5126993;27;20277;-79
2022/08/17 07:59:21;;;;;;;5.88;3.30;;;;;;;25.85;91.15;98464.75;5084917;27;20202;-79
2022/08/17 08:02:06;;;;;;;3.85;3.40;;;;;;;25.74;90.53;98459.13;5111530;27;20190;-79
2022/08/17 08:04:41;;;;;;;4.32;3.65;;;;;;;25.78;89.60;98460.41;5130906;27;20186;-79
2022/08/17 08:07:37;;;;;;;4.68;3.15;;;;;;;25.69;90.64;98462.47;5130904;27;20707;-79
2022/08/17 08:10:10;;;;;;;6.25;3.42;;;;;;;25.82;89.70;98464.34;5131453;27;20205;-80
2022/08/17 08:12:41;;;;;;;4.63;3.05;;;;;;;26.00;89.16;98453.63;5129861;27;20221;-79
2022/08/17 08:15:17;;;;;;;7.10;3.33;;;;;;;25.74;88.99;98465.41;5126199;27;20201;-79
2022/08/17 08:17:54;;;;;;;4.10;3.20;;;;;;;26.12;88.34;98454.63;5125636;27;20190;-79
2022/08/17 08:20:30;;;;;;;6.75;3.22;;;;;;;26.21;86.22;98460.66;5079360;27;20181;-79
2022/08/17 08:23:33;;;;;;;3.83;3.30;;;;;;;26.00;85.57;98461.78;5134170;27;20202;-79
2022/08/17 08:26:19;;;;;;;3.85;3.35;;;;;;;26.16;86.18;98466.75;5124656;27;20217;-79
2022/08/17 08:28:57;;;;;;;4.65;3.65;;;;;;;26.24;86.14;98465.63;5125165;27;20190;-79
2022/08/17 08:31:38;;;;;;;3.95;3.40;;;;;;;26.28;85.75;98466.06;5124042;27;20218;-79
2022/08/17 08:34:22;;;;;;;3.53;3.22;;;;;;;26.38;84.71;98474.59;5131450;27;20186;-79
2022/08/17 08:37:21;;;;;;;5.28;2.95;;;;;;;26.19;84.14;98470.91;5134115;28;20270;-79
2022/08/17 08:40:18;;;;;;;3.50;3.20;;;;;;;26.46;82.67;98477.09;5133935;28;20190;-79
2022/08/17 08:43:01;;;;;;;3.70;3.20;;;;;;;26.43;83.41;98483.75;5045449;28;20319;-79
2022/08/17 08:45:38;;;;;;;3.67;3.20;;;;;;;26.49;82.98;98477.47;5049746;28;20241;-79
2022/08/17 08:48:21;;;;;;;5.07;3.95;;;;;;;26.46;83.62;98480.63;5049672;28;20216;-79
2022/08/17 08:51:19;;;;;;;3.30;3.00;;;;;;;26.63;84.89;98477.38;5050839;28;20380;-79
2022/08/17 08:53:58;;;;;;;6.38;3.95;;;;;;;26.24;85.19;98480.06;5046059;28;20192;-79
2022/08/17 08:56:36;;;;;;;7.65;5.05;;;;;;;26.03;87.95;98487.66;5046304;28;20193;-79
2022/08/17 08:59:16;;;;;;;3.53;3.22;;;;;;;26.28;87.17;98493.22;5049226;28;20216;-79
2022/08/17 09:01:57;;;;;;;5.50;3.65;;;;;;;26.24;87.64;98490.06;5119233;27;20205;-79
2022/08/17 09:04:40;;;;;;;4.38;3.92;;;;;;;26.09;88.70;98482.22;5132043;27;20258;-78
2022/08/17 09:07:38;;;;;;;5.70;3.40;;;;;;;25.94;89.89;98498.75;5137843;27;20213;-80
2022/08/17 09:10:16;;;;;;;6.22;3.60;;;;;;;25.54;94.62;98499.84;5099411;27;20186;-80
2022/08/17 09:12:55;;;;;;;7.00;3.75;;;;;;;25.72;93.72;98508.19;5079529;27;20640;-78
2022/08/17 09:15:26;;;;;;;6.00;3.97;;;;;;;25.74;92.22;98497.13;5134616;27;20240;-80
2022/08/17 09:18:02;;;;;;;6.30;3.65;;;;;;;25.76;91.33;98498.56;5126094;27;20286;-80
2022/08/17 09:20:59;;;;;;;5.88;4.10;;;;;;;25.62;91.99;98507.75;5137401;27;20198;-78
2022/08/17 09:23:33;;;;;;;9.38;4.00;;;;;;;25.66;92.82;98503.56;5133382;27;20190;-78
2022/08/17 09:26:10;;;;;;;7.82;3.53;;;;;;;25.55;94.74;98502.34;5082700;27;20198;-78
2022/08/17 09:28:44;;;;;;;7.53;3.97;;;;;;;25.55;96.31;98515.06;5135295;27;20663;-78
2022/08/17 09:31:20;;;;;;;5.85;3.90;;;;;;;25.65;97.34;98508.16;5097151;27;20194;-78
2022/08/17 09:33:50;;;;;;;4.63;3.83;;;;;;;25.65;98.87;98510.88;5134281;27;20201;-78
2022/08/17 09:36:30;;;;;;;4.90;4.07;;;;;;;25.50;97.22;98521.13;5137143;27;20273;-78
2022/08/17 09:39:03;;;;;;;4.38;3.55;;;;;;;25.69;97.62;98509.44;5126058;27;20208;-77
2022/08/17 09:41:42;;;;;;;5.65;3.40;;;;;;;25.57;95.84;98526.53;5136735;27;20226;-77
2022/08/17 09:44:27;;;;;;;7.28;4.40;;;;;;;25.43;100.00;98523.00;5131993;27;20709;-78
2022/08/17 09:47:05;;;;;;;5.22;3.60;;;;;;;25.26;100.00;98536.13;5132600;27;20222;-78
2022/08/17 09:49:43;;;;;;;4.30;3.63;;;;;;;25.38;100.00;98541.75;5097810;27;20186;-77
2022/08/17 09:52:22;;;;;;;6.25;3.70;;;;;;;25.35;100.00;98534.06;5127741;27;20220;-77
2022/08/17 09:54:55;;;;;;;6.88;4.47;;;;;;;25.42;100.00;98536.78;5127527;27;20198;-77
2022/08/17 09:57:43;;;;;;;5.05;4.05;;;;;;;25.28;100.00;98525.06;5129577;27;20198;-77
2022/08/17 10:00:22;;;;;;;4.75;3.90;;;;;;;25.37;100.00;98524.66;5124905;27;20194;-78
2022/08/17 10:03:27;;;;;;;6.38;3.90;;;;;;;25.31;98.90;98525.50;5133162;27;20221;-78
2022/08/17 10:06:07;;;;;;;8.18;3.80;;;;;;;25.38;97.44;98517.34;5132555;27;20205;-77
2022/08/17 10:08:45;;;;;;;5.28;3.88;;;;;;;25.33;98.24;98528.00;5129938;27;20229;-77
2022/08/17 10:12:14;;;;;;;5.53;4.00;;;;;;;25.16;99.60;98515.91;5130074;27;20202;-77
2022/08/17 10:14:25;;;;;;;5.32;4.10;;;;;;;25.24;100.00;98510.28;5136434;27;20193;-78
2022/08/17 10:17:21;;;;;;;5.43;3.67;;;;;;;25.17;100.00;98528.41;5130533;27;20195;-78
2022/08/17 10:20:00;;;;;;;4.18;3.42;;;;;;;25.24;100.00;98524.66;5039499;28;20211;-77
2022/08/17 10:28:24;;;;;;;6.65;4.50;;;;;;;25.22;100.00;98517.78;5071592;28;20213;-78
2022/08/17 10:31:01;;;;;;;4.80;4.30;;;;;;;25.34;100.00;98522.38;5070181;28;20204;-77
2022/08/17 10:34:05;;;;;;;6.28;4.45;;;;;;;25.14;100.00;98513.41;5072692;28;20204;-81
2022/08/17 10:36:42;;;;;;;6.60;4.40;;;;;;;25.24;100.00;98513.81;5064489;28;20200;-78
2022/08/17 10:39:22;;;;;;;6.55;4.07;;;;;;;25.30;100.00;98513.00;5131111;27;20688;-77
2022/08/17 10:41:57;;;;;;;5.65;4.10;;;;;;;25.28;100.00;98516.94;5129151;27;20230;-78
2022/08/17 10:44:48;;;;;;;6.78;4.38;;;;;;;25.24;100.00;98530.09;5072314;28;20200;-78
2022/08/17 10:47:19;;;;;;;6.28;4.18;;;;;;;25.22;100.00;98534.06;5064584;28;20216;-79
2022/08/17 10:49:52;;;;;;;5.50;4.43;;;;;;;25.32;100.00;98529.06;5066461;28;20275;-78
2022/08/17 10:52:48;;;;;;;8.93;4.47;;;;;;;25.21;100.00;98516.97;5069790;28;20200;-79
2022/08/17 10:55:19;;;;;;;6.25;4.50;;;;;;;25.39;100.00;98521.75;5069910;28;20199;-79
2022/08/17 10:57:53;;;;;;;7.20;4.30;;;;;;;25.64;100.00;98516.50;5074916;28;20228;-79
2022/08/17 11:01:10;;;;;;;6.20;4.00;;;;;;;25.69;100.00;98514.03;5072937;28;20237;-79
2022/08/17 11:03:53;;;;;;;5.88;3.70;;;;;;;25.91;100.00;98522.78;5069638;28;20203;-79
2022/08/17 11:06:41;;;;;;;4.95;4.10;;;;;;;26.00;100.00;98521.50;5069490;28;20287;-79
2022/08/17 11:09:31;;;;;;;6.38;3.67;;;;;;;25.98;100.00;98515.44;5066949;28;20234;-78
2022/08/17 11:12:24;;;;;;;4.35;3.78;;;;;;;26.13;98.83;98521.44;5068220;28;20199;-79
2022/08/17 11:15:10;;;;;;;4.20;3.80;;;;;;;26.14;100.00;98536.69;5080727;27;20209;-79
2022/08/17 11:18:03;;;;;;;4.75;4.22;;;;;;;26.19;100.00;98533.34;5123886;27;20238;-79
2022/08/17 11:21:06;;;;;;;6.45;3.78;;;;;;;26.10;100.00;98542.78;5129989;27;20327;-79
2022/08/17 11:24:18;;;;;;;8.00;3.88;;;;;;;26.19;99.78;98549.63;5038624;28;20663;-79
2022/08/17 11:27:03;;;;;;;7.22;4.03;;;;;;;25.88;100.00;98553.88;5069128;28;20207;-79
2022/08/17 11:29:39;;;;;;;4.60;3.90;;;;;;;25.89;100.00;98546.56;5073117;28;20239;-79
2022/08/17 11:32:12;;;;;;;8.10;3.67;;;;;;;26.18;99.02;98550.69;5029793;28;20185;-79
2022/08/17 11:37:39;;;;;;;8.90;4.43;;;;;;;26.09;100.00;98538.38;5031162;28;20221;-79
2022/08/17 11:40:45;;;;;;;6.38;4.30;;;;;;;26.05;100.00;98542.56;5030702;28;20201;-79
2022/08/17 11:43:28;;;;;;;6.65;4.00;;;;;;;26.59;97.20;98534.06;5031609;28;20249;-79
2022/08/17 11:46:11;;;;;;;6.85;4.57;;;;;;;27.13;94.23;98526.47;5029746;28;20215;-79
2022/08/17 11:51:57;;;;;;;6.63;4.57;;;;;;;27.07;92.21;98517.28;5071680;28;20659;-79
2022/08/17 11:54:44;;;;;;;5.97;4.25;;;;;;;27.47;88.80;98519.69;5067408;28;20200;-80
2022/08/17 11:58:01;;;;;;;5.53;4.05;;;;;;;27.80;84.94;98528.44;5066152;28;20655;-81
2022/08/17 12:00:57;;;;;;;7.18;3.97;;;;;;;27.97;84.20;98536.00;5064086;27;20202;-81
2022/08/17 12:03:47;;;;;;;8.10;4.50;;;;;;;28.03;82.59;98537.81;5132532;27;20190;-81
2022/08/17 12:06:44;;;;;;;6.25;3.92;;;;;;;27.26;85.77;98537.22;5127217;27;20250;-77
2022/08/17 12:09:18;;;;;;;6.60;4.03;;;;;;;27.41;84.87;98539.59;5129227;27;20214;-78
2022/08/17 12:11:55;;;;;;;10.40;4.22;;;;;;;27.13;88.52;98537.34;5126054;27;20197;-78
2022/08/17 12:14:47;;;;;;;4.32;3.80;;;;;;;27.05;95.45;98543.88;5134371;27;20190;-78
2022/08/17 12:17:36;;;;;;;5.95;4.55;;;;;;;27.00;100.00;98546.38;5132774;27;20220;-78
2022/08/17 12:20:16;;;;;;;10.73;4.22;;;;;;;27.09;95.69;98550.53;5130313;27;20187;-80
2022/08/17 12:22:55;;;;;;;10.35;4.85;;;;;;;27.57;93.35;98558.94;5131167;27;20628;-81
2022/08/17 12:25:31;;;;;;;5.25;4.38;;;;;;;27.98;87.85;98543.94;5129538;27;20206;-80
2022/08/17 12:28:00;;;;;;;6.30;4.22;;;;;;;28.66;84.68;98552.00;5078791;28;20218;-80
2022/08/17 12:30:36;;;;;;;10.35;4.70;;;;;;;28.92;81.93;98560.91;5131918;27;20631;-80
2022/08/17 12:33:13;;;;;;;6.10;4.50;;;;;;;29.17;79.36;98555.31;5123009;27;20221;-81
2022/08/17 12:36:03;;;;;;;6.22;4.72;;;;;;;28.28;79.43;98549.53;5067974;28;20196;-81
2022/08/17 12:38:38;;;;;;;5.68;4.05;;;;;;;28.66;76.94;98548.41;5066287;28;20196;-80
2022/08/17 12:44:00;;;;;;;7.80;4.00;;;;;;;29.90;64.41;98539.38;5069271;28;20669;-80
2022/08/17 12:46:32;;;;;;;5.22;3.80;;;;;;;29.78;61.88;98543.19;5065933;28;20208;-80
2022/08/17 12:49:34;;;;;;;5.00;3.70;;;;;;;30.26;61.14;98539.41;5064587;28;20270;-80